createdAt,value
2018-03-20T00:01:18.294Z,100904.44
2018-03-20T00:03:44.031Z,100911.87
2018-03-20T00:06:09.755Z,100894.91
2018-03-20T00:08:35.491Z,100904.05
2018-03-20T00:11:01.226Z,100901.06
2018-03-20T00:13:26.934Z,100896.33
2018-03-20T00:15:52.658Z,100899.80
2018-03-20T00:18:18.374Z,100897.64
2018-03-20T00:20:44.110Z,100879.80
2018-03-20T00:23:09.840Z,100878.03
2018-03-20T00:25:35.574Z,100881.50
2018-03-20T00:28:01.303Z,100881.95
2018-03-20T00:30:27.036Z,100879.30
2018-03-20T00:32:52.774Z,100881.92
2018-03-20T00:35:18.499Z,100888.03
2018-03-20T00:37:44.238Z,100878.48
2018-03-20T00:40:09.974Z,100882.81
2018-03-20T00:42:35.702Z,100884.58
2018-03-20T00:45:01.451Z,100885.45
2018-03-20T00:47:27.189Z,100883.28
2018-03-20T00:49:52.919Z,100881.97
2018-03-20T00:52:18.658Z,100878.50
2018-03-20T00:54:44.392Z,100876.77
2018-03-20T00:57:10.142Z,100861.55
2018-03-20T00:59:35.858Z,100864.59
2018-03-20T01:02:01.601Z,100864.16
2018-03-20T01:04:27.330Z,100861.11
2018-03-20T01:06:53.067Z,100870.27
2018-03-20T01:09:18.794Z,100858.48
2018-03-20T01:11:44.530Z,100852.41
2018-03-20T01:14:10.262Z,100850.67
2018-03-20T01:16:36.017Z,100853.27
2018-03-20T01:19:01.751Z,100851.94
2018-03-20T01:21:27.502Z,100852.80
2018-03-20T01:23:53.242Z,100855.83
2018-03-20T01:26:18.967Z,100854.08
2018-03-20T01:28:44.698Z,100864.95
2018-03-20T01:31:10.432Z,100861.48
2018-03-20T01:33:36.182Z,100852.74
2018-03-20T01:36:01.910Z,100861.02
2018-03-20T01:38:27.642Z,100859.69
2018-03-20T01:40:53.374Z,100860.98
2018-03-20T01:43:19.115Z,100858.38
2018-03-20T01:45:44.841Z,100861.41
2018-03-20T01:48:10.587Z,100857.91
2018-03-20T01:50:36.319Z,100857.05
2018-03-20T01:53:14.543Z,100864.88
2018-03-20T01:55:40.254Z,100859.20
2018-03-20T01:58:05.992Z,100858.77
2018-03-20T02:00:31.714Z,100863.13
2018-03-20T02:02:57.450Z,100858.33
2018-03-20T02:05:23.170Z,100859.63
2018-03-20T02:07:48.903Z,100857.89
2018-03-20T02:10:14.643Z,100857.87
2018-03-20T02:12:40.383Z,100865.27
2018-03-20T02:15:06.115Z,100861.36
2018-03-20T02:17:31.849Z,100861.80
2018-03-20T02:19:57.594Z,100854.37
2018-03-20T02:22:23.324Z,100862.25
2018-03-20T02:24:49.060Z,100862.68
2018-03-20T02:27:14.794Z,100862.66
2018-03-20T02:29:40.530Z,100863.55
2018-03-20T02:32:06.254Z,100872.70
2018-03-20T02:34:31.990Z,100879.19
2018-03-20T02:36:57.731Z,100881.70
2018-03-20T02:39:23.465Z,100886.34
2018-03-20T02:41:49.183Z,100887.19
2018-03-20T02:44:14.928Z,100896.30
2018-03-20T02:46:40.707Z,100894.13
2018-03-20T02:49:06.441Z,100899.38
2018-03-20T02:51:32.173Z,100906.80
2018-03-20T02:53:57.904Z,100898.91
2018-03-20T02:56:23.647Z,100901.51
2018-03-20T02:58:49.366Z,100904.56
2018-03-20T03:01:15.108Z,100913.67
2018-03-20T03:03:40.856Z,100915.84
2018-03-20T03:06:06.603Z,100920.63
2018-03-20T03:08:32.339Z,100931.09
2018-03-20T03:10:58.084Z,100928.92
2018-03-20T03:13:23.843Z,100930.66
2018-03-20T03:15:49.586Z,100939.33
2018-03-20T03:18:15.333Z,100945.37
2018-03-20T03:20:41.072Z,100951.02
2018-03-20T03:23:06.806Z,100952.71
2018-03-20T03:25:32.546Z,100959.25
2018-03-20T03:27:58.263Z,100969.19
2018-03-20T03:30:23.985Z,100973.95
2018-03-20T03:32:49.715Z,100976.97
2018-03-20T03:35:15.458Z,100973.95
2018-03-20T03:37:41.174Z,100983.48
2018-03-20T03:40:06.914Z,100978.27
2018-03-20T03:42:32.630Z,100982.61
2018-03-20T03:44:58.350Z,100989.58
2018-03-20T03:47:24.102Z,100991.70
2018-03-20T03:49:49.821Z,100992.53
2018-03-20T03:52:15.561Z,100989.95
2018-03-20T03:54:41.295Z,101003.39
2018-03-20T03:57:07.029Z,100999.42
2018-03-20T03:59:32.754Z,101004.22
2018-03-20T04:01:58.490Z,101001.61
2018-03-20T04:04:24.219Z,101011.14
2018-03-20T04:06:49.955Z,101022.44
2018-03-20T04:09:15.671Z,101015.93
2018-03-20T04:11:41.405Z,101026.34
2018-03-20T04:14:07.122Z,101029.31
2018-03-20T04:16:32.857Z,101039.73
2018-03-20T04:18:58.581Z,101035.75
2018-03-20T04:21:24.326Z,101039.19
2018-03-20T04:23:50.066Z,101047.80
2018-03-20T04:26:15.810Z,101045.61
2018-03-20T04:28:41.538Z,101057.28
2018-03-20T04:31:07.262Z,101065.20
2018-03-20T04:33:32.986Z,101064.69
2018-03-20T04:35:58.710Z,101073.38
2018-03-20T04:38:24.445Z,101083.47
2018-03-20T04:40:50.169Z,101080.81
2018-03-20T04:43:15.907Z,101088.22
2018-03-20T04:45:41.626Z,101085.14
2018-03-20T04:48:07.366Z,101099.38
2018-03-20T04:50:33.085Z,101101.54
2018-03-20T04:52:58.815Z,101102.82
2018-03-20T04:55:24.538Z,101104.56
2018-03-20T04:57:50.262Z,101115.39
2018-03-20T05:00:16.008Z,101115.84
2018-03-20T05:02:41.743Z,101115.30
2018-03-20T05:05:07.463Z,101124.42
2018-03-20T05:07:33.210Z,101136.59
2018-03-20T05:09:58.934Z,101128.00
2018-03-20T05:12:24.664Z,101139.35
2018-03-20T05:14:50.403Z,101139.34
2018-03-20T05:17:16.162Z,101149.76
2018-03-20T05:19:48.032Z,101157.21
2018-03-20T05:25:12.317Z,101164.09
2018-03-20T05:27:38.042Z,101163.66
2018-03-20T05:30:03.774Z,101178.02
2018-03-20T05:32:29.508Z,101188.03
2018-03-20T05:34:55.242Z,101189.75
2018-03-20T05:37:20.965Z,101195.84
2018-03-20T05:39:46.694Z,101192.77
2018-03-20T05:42:12.414Z,101211.93
2018-03-20T05:44:38.171Z,101220.54
2018-03-20T05:50:14.794Z,101221.69
2018-03-20T05:52:40.509Z,101227.14
2018-03-20T05:55:06.254Z,101236.55
2018-03-20T05:57:31.961Z,101235.11
2018-03-20T05:59:57.694Z,101234.55
2018-03-20T06:02:23.409Z,101238.35
2018-03-20T06:04:49.135Z,101239.69
2018-03-20T06:07:14.850Z,101251.09
2018-03-20T06:09:40.573Z,101243.34
2018-03-20T06:12:06.285Z,101255.09
2018-03-20T06:14:32.015Z,101259.88
2018-03-20T06:16:57.745Z,101272.11
2018-03-20T06:19:23.466Z,101278.31
2018-03-20T06:21:49.183Z,101279.19
2018-03-20T06:24:14.901Z,101283.20
2018-03-20T06:26:40.622Z,101290.16
2018-03-20T06:29:06.338Z,101285.02
2018-03-20T06:31:32.059Z,101295.48
2018-03-20T06:33:57.766Z,101293.81
2018-03-20T06:36:23.481Z,101304.81
2018-03-20T06:38:49.231Z,101308.33
2018-03-20T06:41:14.918Z,101315.32
2018-03-20T06:43:40.638Z,101321.16
2018-03-20T06:46:06.358Z,101328.20
2018-03-20T06:48:32.099Z,101329.59
2018-03-20T06:50:57.866Z,101336.20
2018-03-20T06:53:23.562Z,101337.54
2018-03-20T06:55:49.302Z,101337.22
2018-03-20T06:58:15.026Z,101345.09
2018-03-20T07:00:40.753Z,101346.97
2018-03-20T07:03:06.478Z,101348.41
2018-03-20T07:05:32.211Z,101356.72
2018-03-20T07:07:57.959Z,101365.45
2018-03-20T07:10:23.698Z,101362.08
2018-03-20T07:12:49.430Z,101370.42
2018-03-20T07:15:15.162Z,101376.58
2018-03-20T07:17:40.905Z,101377.20
2018-03-20T07:20:06.646Z,101373.73
2018-03-20T07:22:32.388Z,101389.43
2018-03-20T07:24:58.102Z,101394.81
2018-03-20T07:27:23.842Z,101405.69
2018-03-20T07:29:49.569Z,101400.95
2018-03-20T07:32:15.309Z,101404.95
2018-03-20T07:34:41.040Z,101408.69
2018-03-20T07:37:06.777Z,101415.52
2018-03-20T07:39:32.498Z,101415.59
2018-03-20T07:41:58.231Z,101421.98
2018-03-20T07:44:23.949Z,101431.23
2018-03-20T07:46:49.678Z,101435.41
2018-03-20T07:49:15.704Z,101441.93
2018-03-20T07:51:41.442Z,101448.84
2018-03-20T07:54:07.152Z,101451.69
2018-03-20T07:56:32.857Z,101461.61
2018-03-20T07:58:58.574Z,101462.53
2018-03-20T08:01:24.293Z,101467.37
2018-03-20T08:03:50.262Z,101467.28
2018-03-20T08:06:15.994Z,101480.61
2018-03-20T08:08:41.710Z,101468.80
2018-03-20T08:11:07.430Z,101476.41
2018-03-20T08:13:33.186Z,101476.16
2018-03-20T08:15:58.905Z,101480.32
2018-03-20T08:18:25.947Z,101477.52
2018-03-20T08:20:51.676Z,101489.73
2018-03-20T08:23:17.828Z,101492.44
2018-03-20T08:25:43.577Z,101504.14
2018-03-20T08:28:09.298Z,101501.60
2018-03-20T08:30:35.017Z,101513.19
2018-03-20T08:33:00.729Z,101511.20
2018-03-20T08:35:26.446Z,101512.17
2018-03-20T08:37:52.162Z,101521.05
2018-03-20T08:40:17.869Z,101524.65
2018-03-20T08:42:43.586Z,101525.72
2018-03-20T08:45:09.301Z,101524.59
2018-03-20T08:47:35.029Z,101532.83
2018-03-20T08:50:00.816Z,101542.34
2018-03-20T08:52:26.506Z,101551.50
2018-03-20T08:54:52.234Z,101551.76
2018-03-20T08:57:17.950Z,101554.42
2018-03-20T08:59:43.698Z,101562.78
2018-03-20T09:02:09.426Z,101563.27
2018-03-20T09:04:35.152Z,101569.52
2018-03-20T09:07:00.875Z,101573.66
2018-03-20T09:09:26.606Z,101583.39
2018-03-20T09:11:52.330Z,101585.77
2018-03-20T09:14:18.075Z,101583.42
2018-03-20T09:16:43.827Z,101582.13
2018-03-20T09:19:09.569Z,101592.98
2018-03-20T09:21:35.303Z,101598.42
2018-03-20T09:24:01.045Z,101596.17
2018-03-20T09:26:26.786Z,101597.67
2018-03-20T09:28:52.521Z,101608.75
2018-03-20T09:31:18.242Z,101624.31
2018-03-20T09:33:43.966Z,101633.31
2018-03-20T09:36:09.697Z,101630.83
2018-03-20T09:38:35.438Z,101650.91
2018-03-20T09:41:01.213Z,101634.72
2018-03-20T09:43:26.930Z,101650.84
2018-03-20T09:45:52.633Z,101636.14
2018-03-20T09:48:18.369Z,101660.53
2018-03-20T09:50:44.105Z,101667.70
2018-03-20T09:53:09.812Z,101677.05
2018-03-20T09:55:35.523Z,101666.81
2018-03-20T09:58:01.242Z,101675.72
2018-03-20T10:00:26.977Z,101686.03
2018-03-20T10:02:52.694Z,101683.08
2018-03-20T10:05:18.414Z,101689.99
2018-03-20T10:07:44.122Z,101685.86
2018-03-20T10:10:09.845Z,101694.27
2018-03-20T10:12:35.565Z,101698.84
2018-03-20T10:15:01.299Z,101706.44
2018-03-20T10:17:27.009Z,101697.98
2018-03-20T10:19:52.730Z,101695.93
2018-03-20T10:22:18.455Z,101704.23
2018-03-20T10:24:44.178Z,101710.48
2018-03-20T10:27:09.896Z,101715.84
2018-03-20T10:29:35.616Z,101725.23
2018-03-20T10:32:01.352Z,101728.73
2018-03-20T10:34:27.070Z,101734.55
2018-03-20T10:36:52.793Z,101737.59
2018-03-20T10:39:18.978Z,101739.25
2018-03-20T10:41:45.603Z,101752.02
2018-03-20T10:44:11.852Z,101751.48
2018-03-20T10:46:38.059Z,101759.30
2018-03-20T10:49:03.975Z,101762.95
2018-03-20T10:51:29.675Z,101765.55
2018-03-20T10:53:55.409Z,101777.27
2018-03-20T10:56:21.143Z,101765.78
2018-03-20T10:58:46.869Z,101789.33
2018-03-20T11:01:18.698Z,101775.66
2018-03-20T11:03:44.443Z,101786.76
2018-03-20T11:06:10.178Z,101782.63
2018-03-20T11:08:35.914Z,101788.73
2018-03-20T11:11:01.650Z,101804.08
2018-03-20T11:13:27.391Z,101803.39
2018-03-20T11:15:53.125Z,101803.23
2018-03-20T11:18:18.866Z,101809.30
2018-03-20T11:20:44.603Z,101803.26
2018-03-20T11:23:10.334Z,101800.19
2018-03-20T11:25:36.058Z,101806.84
2018-03-20T11:28:01.802Z,101803.67
2018-03-20T11:30:27.521Z,101746.59
2018-03-20T11:32:53.246Z,101808.08
2018-03-20T11:35:18.978Z,101820.34
2018-03-20T11:37:44.711Z,101810.59
2018-03-20T11:40:10.429Z,101815.48
2018-03-20T11:42:36.153Z,101823.47
2018-03-20T11:45:01.874Z,101821.97
2018-03-20T11:47:27.661Z,101835.66
2018-03-20T11:49:53.342Z,101844.30
2018-03-20T11:52:19.078Z,101846.78
2018-03-20T11:54:44.790Z,101841.23
2018-03-20T11:57:10.524Z,101837.95
2018-03-20T11:59:36.242Z,101837.48
2018-03-20T12:02:01.990Z,101864.11
2018-03-20T12:04:27.710Z,101857.52
2018-03-20T12:06:53.429Z,101851.94
2018-03-20T12:09:31.606Z,101862.72
2018-03-20T12:11:57.338Z,101861.53
2018-03-20T12:14:23.071Z,101868.27
2018-03-20T12:16:48.810Z,101869.66
2018-03-20T12:19:14.538Z,101887.97
2018-03-20T12:21:40.265Z,101865.05
2018-03-20T12:24:05.990Z,101872.55
2018-03-20T12:26:31.725Z,101882.84
2018-03-20T12:28:57.449Z,101887.05
2018-03-20T12:31:23.169Z,101879.84
2018-03-20T12:33:48.902Z,101882.32
2018-03-20T12:36:14.629Z,101881.38
2018-03-20T12:38:40.374Z,101876.16
2018-03-20T12:41:06.102Z,101881.83
2018-03-20T12:43:31.843Z,101895.36
2018-03-20T12:45:57.574Z,101882.81
2018-03-20T12:48:23.310Z,101895.80
2018-03-20T12:50:49.018Z,101906.66
2018-03-20T12:53:14.742Z,101908.16
2018-03-20T12:55:40.453Z,101908.41
2018-03-20T12:58:06.189Z,101909.41
2018-03-20T13:00:31.902Z,101911.11
2018-03-20T13:02:57.617Z,101917.16
2018-03-20T13:05:23.333Z,101922.84
2018-03-20T13:07:49.105Z,101921.33
2018-03-20T13:10:14.829Z,101921.81
2018-03-20T13:12:40.546Z,101928.22
2018-03-20T13:15:06.263Z,101930.41
2018-03-20T13:17:31.976Z,101935.22
2018-03-20T13:19:57.703Z,101933.41
2018-03-20T13:22:23.418Z,101928.34
2018-03-20T13:24:49.143Z,101922.33
2018-03-20T13:27:14.861Z,101940.02
2018-03-20T13:29:40.581Z,101940.38
2018-03-20T13:32:06.298Z,101951.55
2018-03-20T13:34:32.035Z,101943.95
2018-03-20T13:36:57.761Z,101953.23
2018-03-20T13:39:23.477Z,101942.27
2018-03-20T13:41:49.197Z,101948.77
2018-03-20T13:44:14.913Z,101954.44
2018-03-20T13:46:40.633Z,101945.25
2018-03-20T13:49:06.377Z,101954.38
2018-03-20T13:51:32.094Z,101955.42
2018-03-20T13:53:57.810Z,101960.90
2018-03-20T13:56:23.533Z,101964.18
2018-03-20T13:58:49.242Z,101969.35
2018-03-20T14:01:16.726Z,101971.07
2018-03-20T14:03:42.498Z,101975.97
2018-03-20T14:06:08.248Z,101971.20
2018-03-20T14:08:34.006Z,101984.62
2018-03-20T14:10:59.725Z,101962.08
2018-03-20T14:13:25.437Z,101981.84
2018-03-20T14:15:51.224Z,101969.17
2018-03-20T14:18:16.946Z,101980.57
2018-03-20T14:20:42.695Z,101983.60
2018-03-20T14:23:08.388Z,101982.00
2018-03-20T14:25:34.098Z,101979.41
2018-03-20T14:27:59.829Z,101973.19
2018-03-20T14:30:25.546Z,101986.99
2018-03-20T14:32:51.268Z,101984.65
2018-03-20T14:35:16.978Z,101986.40
2018-03-20T14:37:42.703Z,101988.27
2018-03-20T14:40:08.421Z,101991.12
2018-03-20T14:42:34.138Z,101992.87
2018-03-20T14:44:59.876Z,101995.92
2018-03-20T14:47:25.634Z,101988.11
2018-03-20T14:49:51.345Z,102008.58
2018-03-20T14:52:17.073Z,102004.65
2018-03-20T14:54:42.798Z,102009.34
2018-03-20T14:57:08.541Z,102004.08
2018-03-20T14:59:34.254Z,102008.98
2018-03-20T15:02:00.010Z,102013.91
2018-03-20T15:04:25.726Z,102028.84
2018-03-20T15:06:51.458Z,102029.03
2018-03-20T15:09:17.184Z,102019.30
2018-03-20T15:11:42.901Z,102022.66
2018-03-20T15:14:08.641Z,102026.25
2018-03-20T15:16:34.406Z,102027.03
2018-03-20T15:19:00.153Z,102022.34
2018-03-20T15:21:25.873Z,102025.89
2018-03-20T15:23:51.660Z,102033.05
2018-03-20T15:26:17.378Z,102041.03
2018-03-20T15:28:43.159Z,102041.83
2018-03-20T15:31:08.862Z,102041.05
2018-03-20T15:33:34.591Z,102043.97
2018-03-20T15:36:00.368Z,102043.89
2018-03-20T15:38:26.106Z,102048.58
2018-03-20T15:40:51.825Z,102049.42
2018-03-20T15:43:17.569Z,102054.72
2018-03-20T15:45:43.291Z,102054.38
2018-03-20T15:48:09.030Z,102057.70
2018-03-20T15:50:34.761Z,102072.62
2018-03-20T15:53:00.499Z,102056.81
2018-03-20T15:55:26.229Z,102061.87
2018-03-20T15:57:51.957Z,102070.94
2018-03-20T16:00:17.682Z,102071.97
2018-03-20T16:02:43.409Z,102069.79
2018-03-20T16:05:09.149Z,102073.41
2018-03-20T16:07:34.874Z,102074.09
2018-03-20T16:10:00.602Z,102079.75
2018-03-20T16:12:26.317Z,102079.44
2018-03-20T16:14:52.050Z,102074.95
2018-03-20T16:17:17.787Z,102088.93
2018-03-20T16:19:43.523Z,102088.09
2018-03-20T16:22:09.267Z,102092.27
2018-03-20T16:24:34.998Z,102092.24
2018-03-20T16:27:00.727Z,102104.40
2018-03-20T16:29:26.522Z,102097.34
2018-03-20T16:31:52.292Z,102100.86
2018-03-20T16:34:18.058Z,102100.89
2018-03-20T16:36:43.794Z,102113.95
2018-03-20T16:39:09.501Z,102105.19
2018-03-20T16:41:35.234Z,102112.97
2018-03-20T16:44:00.965Z,102118.79
2018-03-20T16:46:26.741Z,102118.50
2018-03-20T16:48:52.487Z,102116.48
2018-03-20T16:51:18.214Z,102114.83
2018-03-20T16:53:43.950Z,102119.88
2018-03-20T16:56:09.693Z,102129.00
2018-03-20T16:58:35.409Z,102126.27
2018-03-20T17:01:01.134Z,102129.78
2018-03-20T17:03:26.861Z,102131.34
2018-03-20T17:05:52.595Z,102135.56
2018-03-20T17:08:18.322Z,102141.19
2018-03-20T17:10:44.065Z,102140.27
2018-03-20T17:13:09.795Z,102141.91
2018-03-20T17:15:35.521Z,102143.56
2018-03-20T17:18:01.238Z,102140.73
2018-03-20T17:20:26.965Z,102150.38
2018-03-20T17:22:52.689Z,102151.02
2018-03-20T17:25:18.426Z,102158.41
2018-03-20T17:27:44.143Z,102153.59
2018-03-20T17:30:09.875Z,102164.17
2018-03-20T17:32:35.594Z,102162.09
2018-03-20T17:35:01.301Z,102168.53
2018-03-20T17:37:27.050Z,102163.08
2018-03-20T17:39:52.822Z,102171.97
2018-03-20T17:42:18.499Z,102172.58
2018-03-20T17:44:44.221Z,102177.80
2018-03-20T17:47:09.988Z,102173.59
2018-03-20T17:49:35.737Z,102176.31
2018-03-20T17:52:01.493Z,102183.48
2018-03-20T17:54:27.214Z,102185.54
2018-03-20T17:56:52.942Z,102182.84
2018-03-20T17:59:18.694Z,102191.09
2018-03-20T18:01:44.442Z,102190.20
2018-03-20T18:04:10.178Z,102199.20
2018-03-20T18:06:35.922Z,102203.70
2018-03-20T18:09:01.754Z,102196.83
2018-03-20T18:11:27.469Z,102199.92
2018-03-20T18:13:53.216Z,102206.57
2018-03-20T18:16:18.941Z,102207.55
2018-03-20T18:18:44.669Z,102206.94
2018-03-20T18:21:10.387Z,102209.44
2018-03-20T18:23:36.121Z,102209.06
2018-03-20T18:26:01.837Z,102211.41
2018-03-20T18:28:27.585Z,102214.80
2018-03-20T18:30:53.319Z,102218.39
2018-03-20T18:33:19.045Z,102228.56
2018-03-20T18:35:44.771Z,102229.20
2018-03-20T18:38:10.502Z,102234.17
2018-03-20T18:40:36.231Z,102232.18
2018-03-20T18:43:02.006Z,102233.29
2018-03-20T18:45:27.741Z,102233.55
2018-03-20T18:47:53.463Z,102234.83
2018-03-20T18:50:19.195Z,102239.95
2018-03-20T18:52:44.918Z,102239.05
2018-03-20T18:55:10.653Z,102250.34
2018-03-20T18:57:36.389Z,102244.83
2018-03-20T19:00:02.113Z,102253.94
2018-03-20T19:02:27.818Z,102252.94
2018-03-20T19:04:53.534Z,102250.08
2018-03-20T19:07:19.259Z,102255.34
2018-03-20T19:09:44.995Z,102257.59
2018-03-20T19:12:10.714Z,102256.27
2018-03-20T19:14:36.513Z,102262.94
2018-03-20T19:17:02.209Z,102264.33
2018-03-20T19:19:27.941Z,102270.13
2018-03-20T19:21:53.668Z,102280.72
2018-03-20T19:24:19.398Z,102272.45
2018-03-20T19:26:45.102Z,102277.63
2018-03-20T19:29:10.817Z,102278.42
2018-03-20T19:31:36.546Z,102282.85
2018-03-20T19:34:02.262Z,102291.27
2018-03-20T19:36:27.981Z,102292.51
2018-03-20T19:38:53.690Z,102295.90
2018-03-20T19:41:19.433Z,102301.15
2018-03-20T19:43:45.142Z,102298.45
2018-03-20T19:46:10.868Z,102295.03
2018-03-20T19:48:36.601Z,102301.67
2018-03-20T19:51:02.360Z,102299.02
2018-03-20T19:53:28.086Z,102298.34
2018-03-20T19:55:53.821Z,102304.47
2018-03-20T19:58:19.562Z,102294.50
2018-03-20T20:00:45.289Z,102313.03
2018-03-20T20:03:11.019Z,102317.72
2018-03-20T20:05:36.757Z,102317.15
2018-03-20T20:08:02.477Z,102313.53
2018-03-20T20:10:28.238Z,102317.42
2018-03-20T20:12:53.937Z,102316.96
2018-03-20T20:15:19.656Z,102319.67
2018-03-20T20:17:45.438Z,102323.45
2018-03-20T20:20:11.206Z,102328.93
2018-03-20T20:22:36.946Z,102333.27
2018-03-20T20:25:02.686Z,102336.19
2018-03-20T20:27:28.432Z,102333.64
2018-03-20T20:29:54.162Z,102338.25
2018-03-20T20:32:19.898Z,102340.02
2018-03-20T20:34:45.621Z,102344.73
2018-03-20T20:37:11.365Z,102346.70
2018-03-20T20:39:37.098Z,102345.81
2018-03-20T20:42:02.838Z,102349.06
2018-03-20T20:44:28.558Z,102356.81
2018-03-20T20:46:54.295Z,102350.14
2018-03-20T20:49:20.018Z,102352.09
2018-03-20T20:51:45.757Z,102352.08
2018-03-20T20:54:11.467Z,102353.20
2018-03-20T20:56:37.203Z,102360.73
2018-03-20T20:59:02.938Z,102360.30
2018-03-20T21:01:28.654Z,102356.92
2018-03-20T21:03:54.369Z,102365.89
2018-03-20T21:06:20.098Z,102370.69
2018-03-20T21:08:45.814Z,102369.97
2018-03-20T21:11:11.537Z,102372.09
2018-03-20T21:13:37.249Z,102373.41
2018-03-20T21:16:02.973Z,102374.22
2018-03-20T21:18:28.695Z,102370.41
2018-03-20T21:20:54.422Z,102374.19
2018-03-20T21:23:20.142Z,102375.63
2018-03-20T21:25:45.846Z,102376.20
2018-03-20T21:28:11.652Z,102377.22
2018-03-20T21:30:37.375Z,102378.70
2018-03-20T21:33:03.098Z,102381.08
2018-03-20T21:35:28.813Z,102373.09
2018-03-20T21:37:54.537Z,102384.94
2018-03-20T21:40:20.254Z,102389.28
2018-03-20T21:42:45.978Z,102388.12
2018-03-20T21:45:11.697Z,102383.00
2018-03-20T21:47:37.440Z,102389.69
2018-03-20T21:50:03.169Z,102392.41
2018-03-20T21:52:28.896Z,102386.25
2018-03-20T21:54:54.637Z,102384.30
2018-03-20T21:57:20.374Z,102390.70
2018-03-20T21:59:46.104Z,102389.80
2018-03-20T22:02:11.834Z,102388.55
2018-03-20T22:04:37.561Z,102385.89
2018-03-20T22:07:03.301Z,102390.34
2018-03-20T22:09:29.030Z,102391.64
2018-03-20T22:11:54.757Z,102394.98
2018-03-20T22:14:20.488Z,102400.02
2018-03-20T22:16:46.220Z,102396.00
2018-03-20T22:19:11.943Z,102398.65
2018-03-20T22:21:37.670Z,102390.22
2018-03-20T22:24:03.419Z,102395.84
2018-03-20T22:26:29.145Z,102397.86
2018-03-20T22:28:54.875Z,102400.77
2018-03-20T22:31:20.594Z,102410.97
2018-03-20T22:33:46.321Z,102411.59
2018-03-20T22:36:12.038Z,102404.88
2018-03-20T22:38:37.777Z,102406.75
2018-03-20T22:41:03.522Z,102410.00
2018-03-20T22:43:29.270Z,102411.43
2018-03-20T22:45:55.006Z,102418.78
2018-03-20T22:48:20.758Z,102417.08
2018-03-20T22:50:46.481Z,102417.28
2018-03-20T22:53:12.214Z,102413.39
2018-03-20T22:55:37.945Z,102416.60
2018-03-20T22:58:03.668Z,102412.60
2018-03-20T23:00:31.287Z,102411.02
2018-03-20T23:02:57.017Z,102413.75
2018-03-20T23:05:22.741Z,102416.34
2018-03-20T23:07:48.475Z,102411.52
2018-03-20T23:10:14.218Z,102410.89
2018-03-20T23:12:39.942Z,102411.30
2018-03-20T23:15:05.677Z,102414.88
2018-03-20T23:17:31.415Z,102418.70
2018-03-20T23:19:57.150Z,102412.95
2018-03-20T23:22:22.880Z,102412.17
2018-03-20T23:24:48.629Z,102411.39
2018-03-20T23:27:14.341Z,102406.50
2018-03-20T23:29:40.080Z,102404.41
2018-03-20T23:32:05.806Z,102407.85
2018-03-20T23:34:31.560Z,102409.69
2018-03-20T23:36:57.291Z,102411.45
2018-03-20T23:39:23.025Z,102411.84
2018-03-20T23:41:48.756Z,102415.90
2018-03-20T23:44:14.481Z,102416.09
2018-03-20T23:46:40.198Z,102413.95
2018-03-20T23:49:12.288Z,102417.95
2018-03-20T23:51:38.022Z,102421.43
2018-03-20T23:54:03.855Z,102421.31
2018-03-20T23:56:29.585Z,102426.48
2018-03-20T23:58:55.307Z,102429.91
